Time;durP1;ratioP1;P1;durP2;ratioP2;P2;SDS_P1;SDS_P2;PMS_P1;PMS_P2;Temp;Humidity;BMP_temperature;BMP_pressure;BME280_temperature;BME280_humidity;BME280_pressure;Samples;Min_cycle;Max_cycle;Signal;HPM_P1;HPM_P2
2022/04/27 00:01:04;;;;;;;;;;;6.30;99.90;;;;;;4959918;29;20042;-84
2022/04/27 00:03:52;;;;;;;;;;;6.30;99.90;;;;;;4954811;28;19981;-83
2022/04/27 00:06:39;;;;;;;;;;;6.30;99.90;;;;;;4971023;28;19941;-84
2022/04/27 00:09:26;;;;;;;;;;;6.30;99.90;;;;;;4982693;28;19910;-84
2022/04/27 00:12:13;;;;;;;;;;;6.30;99.90;;;;;;4962728;29;19923;-85
2022/04/27 00:15:03;;;;;;;;;;;6.20;99.90;;;;;;4963512;28;19926;-84
2022/04/27 00:17:52;;;;;;;;;;;6.30;99.90;;;;;;4967501;28;19910;-78
2022/04/27 00:20:48;;;;;;;;;;;6.30;99.90;;;;;;4989926;28;19994;-85
2022/04/27 00:23:38;;;;;;;;;;;6.30;99.90;;;;;;4974911;28;19922;-84
2022/04/27 00:26:25;;;;;;;;;;;6.30;99.90;;;;;;4975255;28;19928;-82
2022/04/27 00:29:12;;;;;;;;;;;6.30;99.90;;;;;;4959783;28;19945;-83
2022/04/27 00:31:59;;;;;;;;;;;6.30;99.90;;;;;;4967605;28;19954;-81
2022/04/27 00:34:46;;;;;;;;;;;6.30;99.90;;;;;;4960642;28;20004;-84
2022/04/27 00:37:33;;;;;;;;;;;6.30;99.90;;;;;;4960928;28;19923;-85
2022/04/27 00:40:20;;;;;;;;;;;6.30;99.90;;;;;;4958953;28;20344;-84
2022/04/27 00:43:08;;;;;;;;;;;6.30;99.90;;;;;;4957742;28;20009;-85
2022/04/27 00:45:55;;;;;;;;;;;6.30;99.90;;;;;;4962277;28;20233;-83
2022/04/27 00:48:42;;;;;;;;;;;6.40;99.90;;;;;;4954011;28;19958;-83
2022/04/27 00:51:30;;;;;;;;;;;6.40;99.90;;;;;;4957593;28;19930;-84
2022/04/27 00:54:27;;;;;;;;;;;6.40;99.90;;;;;;4947380;28;20001;-83
2022/04/27 00:57:14;;;;;;;;;;;6.30;99.90;;;;;;4950699;29;19927;-83
2022/04/27 01:00:16;;;;;;;;;;;6.30;99.90;;;;;;4945450;29;19929;-84
2022/04/27 01:03:06;;;;;;;;;;;6.30;99.90;;;;;;4956565;28;19922;-83
2022/04/27 01:06:10;;;;;;;;;;;6.20;99.90;;;;;;4956576;29;19961;-84
2022/04/27 01:09:04;;;;;;;;;;;6.20;99.90;;;;;;4955560;28;19933;-84
2022/04/27 01:11:52;;;;;;;;;;;6.20;99.90;;;;;;4961608;28;19926;-85
2022/04/27 01:14:42;;;;;;;;;;;6.10;99.90;;;;;;4956003;29;20360;-84
2022/04/27 01:17:47;;;;;;;;;;;6.10;99.90;;;;;;4951411;28;20016;-85
2022/04/27 01:20:53;;;;;;;;;;;6.10;99.90;;;;;;4948390;28;19953;-83
2022/04/27 01:23:40;;;;;;;;;;;6.10;99.90;;;;;;4939848;29;19956;-84
2022/04/27 01:26:55;;;;;;;;;;;6.10;99.90;;;;;;4955098;28;19935;-84
2022/04/27 01:30:19;;;;;;;;;;;6.10;99.90;;;;;;4952609;28;19930;-84
2022/04/27 01:33:17;;;;;;;;;;;6.20;99.90;;;;;;4959237;28;20392;-84
2022/04/27 01:36:28;;;;;;;;;;;6.20;99.90;;;;;;4949390;28;19910;-85
2022/04/27 01:39:15;;;;;;;;;;;6.20;99.90;;;;;;4958640;28;19922;-85
2022/04/27 01:42:03;;;;;;;;;;;6.30;99.90;;;;;;4952894;28;19930;-84
2022/04/27 01:44:50;;;;;;;;;;;6.30;99.90;;;;;;4964607;28;19927;-84
2022/04/27 01:47:43;;;;;;;;;;;6.30;99.90;;;;;;4967873;28;19922;-84
2022/04/27 01:50:30;;;;;;;;;;;6.30;99.90;;;;;;4955515;28;19930;-84
2022/04/27 01:56:58;;;;;;;;;;;6.30;99.90;;;;;;4959347;28;19914;-84
2022/04/27 01:59:45;;;;;;;;;;;6.40;99.90;;;;;;4953144;28;19926;-83
2022/04/27 02:02:33;;;;;;;;;;;6.40;99.90;;;;;;4954439;28;19922;-83
2022/04/27 02:05:21;;;;;;;;;;;6.40;99.90;;;;;;4959065;28;20370;-83
2022/04/27 02:08:08;;;;;;;;;;;6.50;99.90;;;;;;4969397;28;19922;-82
2022/04/27 02:10:55;;;;;;;;;;;6.40;99.90;;;;;;4953889;28;19993;-82
2022/04/27 02:13:42;;;;;;;;;;;6.50;99.90;;;;;;4942238;28;19923;-83
2022/04/27 02:16:29;;;;;;;;;;;6.50;99.90;;;;;;4955145;28;19931;-84
2022/04/27 02:19:16;;;;;;;;;;;6.50;99.90;;;;;;4957752;28;19932;-83
2022/04/27 02:22:06;;;;;;;;;;;6.50;99.90;;;;;;4957039;28;20233;-83
2022/04/27 02:25:11;;;;;;;;;;;6.50;99.90;;;;;;4952656;28;19933;-83
2022/04/27 02:27:58;;;;;;;;;;;6.60;99.90;;;;;;4945535;29;19973;-83
2022/04/27 02:30:45;;;;;;;;;;;6.60;99.90;;;;;;4961387;28;19969;-82
2022/04/27 02:33:32;;;;;;;;;;;6.50;99.90;;;;;;4959682;28;19929;-83
2022/04/27 02:36:20;;;;;;;;;;;6.60;99.90;;;;;;4949552;28;19933;-83
2022/04/27 02:39:07;;;;;;;;;;;6.60;99.90;;;;;;4933200;28;20279;-84
2022/04/27 02:41:54;;;;;;;;;;;6.60;99.90;;;;;;4959729;28;20245;-82
2022/04/27 02:44:41;;;;;;;;;;;6.60;99.90;;;;;;4960827;28;19934;-82
2022/04/27 02:47:42;;;;;;;;;;;6.60;99.90;;;;;;4951694;28;20005;-82
2022/04/27 02:53:35;;;;;;;;;;;6.60;99.90;;;;;;4962294;28;19930;-84
2022/04/27 02:56:24;;;;;;;;;;;6.60;99.90;;;;;;4958046;28;19925;-84
2022/04/27 02:59:12;;;;;;;;;;;6.60;99.90;;;;;;4961295;28;19948;-83
2022/04/27 03:01:59;;;;;;;;;;;6.60;99.90;;;;;;4957590;28;19926;-83
2022/04/27 03:04:47;;;;;;;;;;;6.60;99.90;;;;;;4959816;28;20028;-84
2022/04/27 03:07:34;;;;;;;;;;;6.60;99.90;;;;;;4961824;29;19922;-84
2022/04/27 03:10:20;;;;;;;;;;;6.60;99.90;;;;;;4962110;29;20344;-84
2022/04/27 03:13:15;;;;;;;;;;;6.60;99.90;;;;;;4959394;29;19998;-84
2022/04/27 03:16:02;;;;;;;;;;;6.60;99.90;;;;;;4960104;28;19922;-83
2022/04/27 03:18:49;;;;;;;;;;;6.70;99.90;;;;;;4959380;28;20210;-84
2022/04/27 03:21:36;;;;;;;;;;;6.60;99.90;;;;;;4963652;28;19922;-83
2022/04/27 03:24:23;;;;;;;;;;;6.60;99.90;;;;;;4954382;28;19930;-84
2022/04/27 03:27:11;;;;;;;;;;;6.60;99.90;;;;;;4959645;28;19937;-83
2022/04/27 03:30:02;;;;;;;;;;;6.60;99.90;;;;;;4964739;28;19922;-84
2022/04/27 03:32:53;;;;;;;;;;;6.60;99.90;;;;;;4955884;28;19922;-85
2022/04/27 03:35:41;;;;;;;;;;;6.60;99.90;;;;;;4953247;28;19926;-83
2022/04/27 03:38:32;;;;;;;;;;;6.60;99.90;;;;;;4963087;28;19928;-85
2022/04/27 03:41:22;;;;;;;;;;;6.60;99.90;;;;;;4948671;28;20517;-85
2022/04/27 03:44:09;;;;;;;;;;;6.60;99.90;;;;;;4958578;28;19922;-84
2022/04/27 03:46:56;;;;;;;;;;;6.60;99.90;;;;;;4940824;28;20276;-84
2022/04/27 03:49:45;;;;;;;;;;;6.60;99.90;;;;;;4946117;29;19969;-83
2022/04/27 03:52:35;;;;;;;;;;;6.60;99.90;;;;;;4959208;28;19923;-84
2022/04/27 03:55:22;;;;;;;;;;;6.60;99.90;;;;;;4957534;28;19934;-85
2022/04/27 03:58:10;;;;;;;;;;;6.60;99.90;;;;;;4964239;28;19929;-84
2022/04/27 04:00:57;;;;;;;;;;;6.60;99.90;;;;;;4969771;28;19922;-84
2022/04/27 04:03:44;;;;;;;;;;;6.60;99.90;;;;;;4967565;28;19971;-84
2022/04/27 04:06:32;;;;;;;;;;;6.60;99.90;;;;;;4972299;28;19930;-84
2022/04/27 04:09:19;;;;;;;;;;;6.60;99.90;;;;;;4959910;28;19973;-84
2022/04/27 04:12:07;;;;;;;;;;;6.60;99.90;;;;;;4962577;28;20345;-83
2022/04/27 04:14:54;;;;;;;;;;;6.60;99.90;;;;;;4955545;28;19922;-85
2022/04/27 04:17:46;;;;;;;;;;;6.60;99.90;;;;;;4938534;28;20371;-83
2022/04/27 04:20:45;;;;;;;;;;;6.60;99.90;;;;;;4966300;28;19922;-84
2022/04/27 04:23:32;;;;;;;;;;;6.60;99.90;;;;;;4955844;28;19922;-84
2022/04/27 04:29:26;;;;;;;;;;;6.60;99.90;;;;;;4960188;28;19936;-83
2022/04/27 04:43:43;;;;;;;;;;;6.60;99.90;;;;;;4969118;28;19924;-84
2022/04/27 04:46:30;;;;;;;;;;;6.60;99.90;;;;;;4980221;28;19937;-83
2022/04/27 04:49:17;;;;;;;;;;;6.60;99.90;;;;;;4969438;28;19993;-85
2022/04/27 04:52:07;;;;;;;;;;;6.70;99.90;;;;;;4962219;28;19922;-85
2022/04/27 04:54:56;;;;;;;;;;;6.70;99.90;;;;;;4968686;29;19977;-83
2022/04/27 04:57:44;;;;;;;;;;;6.70;99.90;;;;;;4971538;28;19923;-87
2022/04/27 05:00:31;;;;;;;;;;;6.70;99.90;;;;;;4974076;28;19985;-82
2022/04/27 05:03:20;;;;;;;;;;;6.70;99.90;;;;;;4972616;28;19922;-85
2022/04/27 05:06:07;;;;;;;;;;;6.70;99.90;;;;;;4972911;28;19922;-86
2022/04/27 05:08:54;;;;;;;;;;;6.70;99.90;;;;;;4966942;28;19934;-84
2022/04/27 05:11:43;;;;;;;;;;;6.80;99.90;;;;;;4968741;28;19925;-82
2022/04/27 05:14:30;;;;;;;;;;;6.90;99.90;;;;;;4963869;28;19922;-83
2022/04/27 05:17:18;;;;;;;;;;;6.90;99.90;;;;;;4968819;29;19973;-81
2022/04/27 05:20:11;;;;;;;;;;;6.90;99.90;;;;;;4971143;28;19922;-81
2022/04/27 05:22:59;;;;;;;;;;;6.90;99.90;;;;;;4973933;28;19930;-80
2022/04/27 05:25:46;;;;;;;;;;;6.80;99.90;;;;;;4984976;28;19922;-81
2022/04/27 05:34:30;;;;;;;;;;;7.00;99.90;;;;;;4941367;29;19967;-78
2022/04/27 05:37:18;;;;;;;;;;;7.10;99.90;;;;;;4938974;29;19910;-80
2022/04/27 05:40:05;;;;;;;;;;;7.20;99.90;;;;;;4941076;29;19911;-79
2022/04/27 05:42:53;;;;;;;;;;;7.20;99.90;;;;;;4941646;29;19982;-81
2022/04/27 05:45:40;;;;;;;;;;;7.30;99.90;;;;;;5048485;23;19922;-79
2022/04/27 05:48:30;;;;;;;;;;;7.30;99.90;;;;;;4963819;29;19973;-80
2022/04/27 05:51:18;;;;;;;;;;;7.30;99.90;;;;;;4956279;28;20328;-81
2022/04/27 05:54:05;;;;;;;;;;;7.40;99.90;;;;;;4963451;29;19922;-80
2022/04/27 05:57:06;;;;;;;;;;;7.40;99.90;;;;;;4960090;28;19945;-82
2022/04/27 05:59:53;;;;;;;;;;;7.50;99.90;;;;;;4953754;29;20116;-83
2022/04/27 06:03:12;;;;;;;;;;;7.60;99.90;;;;;;4946262;29;20255;-82
2022/04/27 06:06:05;;;;;;;;;;;7.70;99.90;;;;;;4961192;29;19926;-82
2022/04/27 06:09:07;;;;;;;;;;;7.80;99.90;;;;;;4963837;29;20329;-83
2022/04/27 06:15:51;;;;;;;;;;;7.90;99.90;;;;;;4966383;29;19917;-85
2022/04/27 06:18:40;;;;;;;;;;;8.00;99.90;;;;;;4955258;29;19989;-84
2022/04/27 06:21:31;;;;;;;;;;;8.10;99.90;;;;;;4960055;29;19933;-83
2022/04/27 06:24:19;;;;;;;;;;;8.20;99.90;;;;;;4963849;29;19926;-85
2022/04/27 06:27:06;;;;;;;;;;;8.30;99.90;;;;;;4954984;29;19922;-83
2022/04/27 06:30:00;;;;;;;;;;;8.30;99.90;;;;;;4953874;29;20017;-84
2022/04/27 06:32:50;;;;;;;;;;;8.40;99.90;;;;;;4966999;29;19929;-85
2022/04/27 06:35:40;;;;;;;;;;;8.50;99.90;;;;;;4952023;29;19922;-85
2022/04/27 06:38:29;;;;;;;;;;;8.50;99.90;;;;;;4966279;29;20218;-85
2022/04/27 06:41:24;;;;;;;;;;;8.80;99.90;;;;;;4953374;28;19922;-86
2022/04/27 06:44:11;;;;;;;;;;;8.90;99.90;;;;;;4964637;28;19930;-85
2022/04/27 06:46:59;;;;;;;;;;;9.10;99.90;;;;;;4934487;29;19922;-85
2022/04/27 06:49:46;;;;;;;;;;;9.10;99.90;;;;;;4957943;28;20289;-85
2022/04/27 06:52:47;;;;;;;;;;;9.00;99.90;;;;;;4943528;29;19965;-85
2022/04/27 06:55:36;;;;;;;;;;;9.20;99.90;;;;;;4930733;29;20328;-82
2022/04/27 06:58:23;;;;;;;;;;;9.40;99.90;;;;;;4954788;28;19922;-84
2022/04/27 07:01:13;;;;;;;;;;;9.40;99.90;;;;;;4956911;28;19926;-85
2022/04/27 07:04:07;;;;;;;;;;;9.30;99.90;;;;;;4943997;28;20025;-84
2022/04/27 07:07:18;;;;;;;;;;;9.40;99.90;;;;;;4940460;29;19977;-84
2022/04/27 07:10:06;;;;;;;;;;;9.60;99.90;;;;;;4954598;28;19930;-84
2022/04/27 07:12:56;;;;;;;;;;;9.60;99.90;;;;;;4949823;29;19927;-84
2022/04/27 07:15:45;;;;;;;;;;;9.60;99.90;;;;;;4948550;28;20202;-83
2022/04/27 07:18:32;;;;;;;;;;;9.60;99.90;;;;;;4955638;28;19997;-84
2022/04/27 07:21:20;;;;;;;;;;;9.70;99.90;;;;;;4952784;28;19933;-85
2022/04/27 07:24:07;;;;;;;;;;;9.80;99.90;;;;;;4953203;29;19923;-85
2022/04/27 07:26:56;;;;;;;;;;;10.10;99.90;;;;;;4954594;28;19930;-85
2022/04/27 07:29:44;;;;;;;;;;;10.30;99.90;;;;;;4954970;28;19923;-84
2022/04/27 07:32:35;;;;;;;;;;;10.40;99.90;;;;;;4955218;28;20348;-84
2022/04/27 07:35:22;;;;;;;;;;;10.40;99.90;;;;;;4955640;29;19922;-83
2022/04/27 07:38:13;;;;;;;;;;;10.30;99.90;;;;;;4945463;28;19997;-83
2022/04/27 07:41:00;;;;;;;;;;;10.00;99.90;;;;;;4960013;28;19981;-82
2022/04/27 07:43:51;;;;;;;;;;;9.90;99.90;;;;;;4957818;28;20065;-84
2022/04/27 07:46:38;;;;;;;;;;;9.90;99.90;;;;;;4957430;28;19933;-84
2022/04/27 07:49:26;;;;;;;;;;;10.00;99.90;;;;;;4942147;29;20003;-86
2022/04/27 07:52:14;;;;;;;;;;;9.80;99.90;;;;;;4944590;29;19945;-85
2022/04/27 07:55:03;;;;;;;;;;;9.80;99.90;;;;;;4958144;29;19922;-84
2022/04/27 07:57:50;;;;;;;;;;;9.70;99.90;;;;;;4952538;28;19961;-84
2022/04/27 08:00:38;;;;;;;;;;;9.60;99.90;;;;;;4947266;28;20077;-83
2022/04/27 08:03:26;;;;;;;;;;;9.50;99.90;;;;;;4954352;29;20024;-84
2022/04/27 08:06:14;;;;;;;;;;;9.30;99.90;;;;;;4958398;28;20352;-85
2022/04/27 08:09:01;;;;;;;;;;;9.20;99.90;;;;;;4943763;29;19933;-84
2022/04/27 08:11:48;;;;;;;;;;;9.10;99.90;;;;;;4939701;29;19942;-85
2022/04/27 08:14:36;;;;;;;;;;;9.00;99.90;;;;;;4956798;28;19926;-84
2022/04/27 08:17:24;;;;;;;;;;;8.90;99.90;;;;;;4958275;28;19923;-85
2022/04/27 08:23:18;;;;;;;;;;;8.80;99.90;;;;;;4956695;28;19942;-85
2022/04/27 08:26:05;;;;;;;;;;;9.40;99.90;;;;;;4958105;28;20006;-86
2022/04/27 08:28:53;;;;;;;;;;;9.70;99.90;;;;;;4953278;29;19981;-85
2022/04/27 08:31:43;;;;;;;;;;;9.90;99.90;;;;;;4956943;28;19930;-84
2022/04/27 08:34:34;;;;;;;;;;;9.90;99.90;;;;;;4941382;28;20305;-84
2022/04/27 08:37:24;;;;;;;;;;;9.80;99.90;;;;;;4940966;29;19922;-84
2022/04/27 08:40:11;;;;;;;;;;;9.80;99.90;;;;;;4955219;28;20279;-85
2022/04/27 08:43:01;;;;;;;;;;;9.70;99.90;;;;;;4958166;28;19922;-85
2022/04/27 08:45:48;;;;;;;;;;;9.60;99.90;;;;;;4957126;28;19927;-84
2022/04/27 08:48:35;;;;;;;;;;;9.60;99.90;;;;;;4955945;29;19938;-84
2022/04/27 08:51:24;;;;;;;;;;;9.60;99.90;;;;;;4951303;29;19927;-84
2022/04/27 08:54:13;;;;;;;;;;;9.60;99.90;;;;;;4943871;29;19933;-85
2022/04/27 08:57:03;;;;;;;;;;;9.50;99.90;;;;;;4954755;28;19944;-85
2022/04/27 08:59:53;;;;;;;;;;;9.50;99.90;;;;;;4950599;28;19922;-84
2022/04/27 09:02:42;;;;;;;;;;;9.50;99.90;;;;;;4956043;29;19934;-86
2022/04/27 09:05:30;;;;;;;;;;;9.60;99.90;;;;;;4951411;28;20137;-84
2022/04/27 09:08:17;;;;;;;;;;;9.80;99.90;;;;;;4937147;28;19934;-86
2022/04/27 09:11:21;;;;;;;;;;;10.20;99.90;;;;;;4955241;28;19922;-84
2022/04/27 09:14:08;;;;;;;;;;;10.60;99.90;;;;;;4941007;28;19935;-87
2022/04/27 09:23:22;;;;;;;;;;;10.70;99.90;;;;;;4957670;28;19926;-85
2022/04/27 09:26:19;;;;;;;;;;;10.40;99.90;;;;;;4958735;28;19930;-84
2022/04/27 09:29:08;;;;;;;;;;;10.40;99.90;;;;;;4945015;29;19930;-85
2022/04/27 09:31:56;;;;;;;;;;;10.70;99.90;;;;;;4957988;28;19933;-86
2022/04/27 09:34:45;;;;;;;;;;;11.50;99.90;;;;;;4946387;28;19934;-85
2022/04/27 09:37:43;;;;;;;;;;;12.40;99.90;;;;;;4950737;28;20036;-81
2022/04/27 09:40:41;;;;;;;;;;;13.30;99.90;;;;;;4943538;28;19931;-86
2022/04/27 09:43:50;;;;;;;;;;;13.50;99.90;;;;;;4943762;29;19934;-84
2022/04/27 09:46:44;;;;;;;;;;;13.40;99.90;;;;;;4950251;28;19930;-83
2022/04/27 09:49:34;;;;;;;;;;;13.10;99.90;;;;;;4958444;28;19993;-86
2022/04/27 09:52:27;;;;;;;;;;;13.30;99.90;;;;;;4945505;29;19922;-86
2022/04/27 09:55:17;;;;;;;;;;;14.10;99.90;;;;;;4953819;28;20049;-83
2022/04/27 09:58:09;;;;;;;;;;;14.80;99.90;;;;;;4947163;29;19939;-84
2022/04/27 10:01:04;;;;;;;;;;;15.90;99.90;;;;;;4951779;28;19922;-83
2022/04/27 10:03:57;;;;;;;;;;;15.80;99.90;;;;;;4949671;28;19922;-83
2022/04/27 10:06:44;;;;;;;;;;;15.70;99.90;;;;;;4933065;29;20047;-83
2022/04/27 10:09:34;;;;;;;;;;;15.50;99.90;;;;;;4951630;29;20333;-83
2022/04/27 10:12:35;;;;;;;;;;;15.80;99.90;;;;;;4949487;28;19922;-82
2022/04/27 10:15:22;;;;;;;;;;;16.00;99.90;;;;;;4959817;29;19926;-83
2022/04/27 10:18:10;;;;;;;;;;;15.70;99.90;;;;;;4949611;29;20333;-83
2022/04/27 10:20:59;;;;;;;;;;;14.80;99.90;;;;;;4958086;28;19966;-83
2022/04/27 10:23:47;;;;;;;;;;;14.50;99.90;;;;;;4961042;28;19922;-82
2022/04/27 10:26:36;;;;;;;;;;;14.10;99.90;;;;;;4949250;28;19945;-84
2022/04/27 10:29:26;;;;;;;;;;;13.80;99.90;;;;;;4970568;28;19910;-84
2022/04/27 10:32:32;;;;;;;;;;;13.50;99.90;;;;;;4968294;29;20002;-83
2022/04/27 10:35:29;;;;;;;;;;;13.50;99.90;;;;;;4966544;28;19934;-85
2022/04/27 10:38:24;;;;;;;;;;;13.40;99.90;;;;;;4969181;28;19922;-84
2022/04/27 10:41:11;;;;;;;;;;;13.40;99.90;;;;;;4974552;28;19966;-86
2022/04/27 10:43:59;;;;;;;;;;;13.60;99.90;;;;;;4963514;29;19923;-85
2022/04/27 10:46:50;;;;;;;;;;;13.70;99.90;;;;;;4966127;28;19942;-85
2022/04/27 10:49:40;;;;;;;;;;;14.00;99.90;;;;;;4947982;28;19934;-85
2022/04/27 10:52:42;;;;;;;;;;;14.00;99.90;;;;;;4953143;29;19942;-87
2022/04/27 10:55:37;;;;;;;;;;;14.00;99.90;;;;;;4936320;28;19940;-84
2022/04/27 10:58:32;;;;;;;;;;;14.20;99.90;;;;;;4950352;28;19938;-82
2022/04/27 11:01:34;;;;;;;;;;;14.20;99.90;;;;;;4953806;28;19922;-85
2022/04/27 11:04:31;;;;;;;;;;;14.30;99.90;;;;;;4951468;29;19926;-85
2022/04/27 11:07:41;;;;;;;;;;;14.60;99.90;;;;;;4940254;28;19922;-85
2022/04/27 11:10:29;;;;;;;;;;;15.20;99.90;;;;;;4937272;29;19928;-84
2022/04/27 11:13:18;;;;;;;;;;;15.90;99.90;;;;;;4944162;28;20021;-85
2022/04/27 11:16:06;;;;;;;;;;;15.80;98.40;;;;;;4949122;28;20063;-86
2022/04/27 11:18:58;;;;;;;;;;;14.40;99.90;;;;;;4938858;29;20315;-86
2022/04/27 11:21:48;;;;;;;;;;;13.70;99.90;;;;;;4950030;29;19981;-84
2022/04/27 11:24:35;;;;;;;;;;;13.80;99.90;;;;;;4937486;29;19941;-85
2022/04/27 11:27:28;;;;;;;;;;;13.40;99.90;;;;;;4953217;28;19926;-84
2022/04/27 11:30:17;;;;;;;;;;;13.40;99.90;;;;;;4955896;28;19993;-85
2022/04/27 11:33:06;;;;;;;;;;;13.40;99.90;;;;;;4954100;28;20200;-84
2022/04/27 11:35:54;;;;;;;;;;;13.10;99.90;;;;;;4949990;28;20375;-84
2022/04/27 11:38:44;;;;;;;;;;;13.20;99.90;;;;;;4950227;28;19926;-85
2022/04/27 11:41:36;;;;;;;;;;;13.40;99.90;;;;;;4951642;29;20024;-84
2022/04/27 11:44:25;;;;;;;;;;;13.80;99.90;;;;;;4936091;29;20305;-86
2022/04/27 11:47:27;;;;;;;;;;;13.80;99.90;;;;;;4951764;29;19926;-83
2022/04/27 11:50:17;;;;;;;;;;;13.50;99.90;;;;;;4946711;29;19922;-86
2022/04/27 11:53:07;;;;;;;;;;;13.50;99.90;;;;;;4933904;28;19929;-85
2022/04/27 11:56:04;;;;;;;;;;;13.30;99.90;;;;;;4962767;28;19922;-83
2022/04/27 11:59:05;;;;;;;;;;;13.60;99.90;;;;;;4940151;29;20363;-83
2022/04/27 12:01:56;;;;;;;;;;;14.30;99.90;;;;;;4951525;28;19926;-84
2022/04/27 12:04:48;;;;;;;;;;;14.50;99.90;;;;;;4957136;28;19933;-85
2022/04/27 12:07:41;;;;;;;;;;;15.40;99.90;;;;;;4953044;29;20038;-86
2022/04/27 12:10:34;;;;;;;;;;;16.90;98.20;;;;;;4941784;28;20091;-85
2022/04/27 12:13:29;;;;;;;;;;;16.70;92.50;;;;;;4951003;28;19926;-84
2022/04/27 12:16:21;;;;;;;;;;;15.90;94.90;;;;;;4954229;28;19933;-84
2022/04/27 12:19:28;;;;;;;;;;;16.10;97.50;;;;;;4952016;28;19926;-85
2022/04/27 12:22:27;;;;;;;;;;;16.60;95.40;;;;;;4950625;28;19945;-86
2022/04/27 12:25:37;;;;;;;;;;;15.50;92.60;;;;;;4948673;29;19933;-85
2022/04/27 12:28:34;;;;;;;;;;;14.80;95.30;;;;;;4942005;28;19973;-86
2022/04/27 12:31:37;;;;;;;;;;;14.60;96.80;;;;;;4955464;28;20032;-83
2022/04/27 12:37:38;;;;;;;;;;;15.10;95.90;;;;;;4952837;28;19930;-84
2022/04/27 12:40:33;;;;;;;;;;;16.10;95.20;;;;;;4954542;28;19922;-84
2022/04/27 12:43:24;;;;;;;;;;;18.30;93.60;;;;;;4953413;28;19926;-85
2022/04/27 12:46:20;;;;;;;;;;;20.50;78.80;;;;;;4953398;28;19937;-85
2022/04/27 12:49:15;;;;;;;;;;;20.20;73.30;;;;;;4955198;29;20348;-85
2022/04/27 12:52:21;;;;;;;;;;;20.00;68.10;;;;;;4944128;29;19926;-85
2022/04/27 12:55:16;;;;;;;;;;;19.40;66.90;;;;;;4940633;29;19923;-85
2022/04/27 12:58:05;;;;;;;;;;;20.40;68.20;;;;;;4950324;28;19926;-85
2022/04/27 13:01:06;;;;;;;;;;;20.50;64.70;;;;;;4947909;29;19930;-85
2022/04/27 13:03:56;;;;;;;;;;;19.80;67.00;;;;;;4951327;28;20355;-85
2022/04/27 13:06:46;;;;;;;;;;;20.10;62.30;;;;;;4955464;29;19926;-84
2022/04/27 13:12:47;;;;;;;;;;;20.70;58.70;;;;;;4949692;28;19926;-85
2022/04/27 13:15:35;;;;;;;;;;;19.50;59.30;;;;;;4947949;28;19922;-86
2022/04/27 13:18:24;;;;;;;;;;;19.60;64.70;;;;;;4955430;28;20379;-85
2022/04/27 13:21:15;;;;;;;;;;;20.90;58.70;;;;;;4954590;28;19937;-85
2022/04/27 13:24:08;;;;;;;;;;;21.10;55.60;;;;;;4957362;28;19994;-83
2022/04/27 13:26:57;;;;;;;;;;;21.60;54.60;;;;;;4958621;28;19926;-83
2022/04/27 13:29:46;;;;;;;;;;;21.60;53.50;;;;;;4955181;29;19941;-83
2022/04/27 13:32:35;;;;;;;;;;;22.00;55.40;;;;;;4951236;29;19937;-83
2022/04/27 13:35:26;;;;;;;;;;;22.20;54.30;;;;;;4939189;29;19926;-84
2022/04/27 13:38:15;;;;;;;;;;;21.50;53.70;;;;;;4955784;28;19938;-84
2022/04/27 13:41:12;;;;;;;;;;;22.50;52.30;;;;;;4954423;28;19922;-85
2022/04/27 13:44:02;;;;;;;;;;;21.70;51.30;;;;;;4953460;29;19922;-83
2022/04/27 13:46:50;;;;;;;;;;;21.50;52.00;;;;;;4951911;29;19922;-83
2022/04/27 13:49:38;;;;;;;;;;;20.90;54.30;;;;;;4952005;29;20068;-84
2022/04/27 13:52:27;;;;;;;;;;;21.30;56.00;;;;;;4946200;29;19922;-84
2022/04/27 13:55:20;;;;;;;;;;;21.00;54.00;;;;;;4961329;28;20385;-85
2022/04/27 13:58:18;;;;;;;;;;;20.90;54.40;;;;;;4955465;28;19926;-84
2022/04/27 14:01:30;;;;;;;;;;;20.20;55.60;;;;;;4961620;28;20061;-86
2022/04/27 14:04:24;;;;;;;;;;;20.60;52.50;;;;;;4947781;28;20337;-84
2022/04/27 14:07:16;;;;;;;;;;;20.50;53.20;;;;;;4954545;29;20234;-84
2022/04/27 14:10:06;;;;;;;;;;;20.50;55.50;;;;;;4955032;28;20025;-83
2022/04/27 14:19:10;;;;;;;;;;;17.30;60.50;;;;;;4955595;29;19922;-83
2022/04/27 14:21:58;;;;;;;;;;;16.60;63.30;;;;;;4955384;29;19933;-84
2022/04/27 14:24:46;;;;;;;;;;;16.30;66.10;;;;;;4953342;29;20232;-83
2022/04/27 14:27:34;;;;;;;;;;;16.00;68.00;;;;;;4938079;28;19978;-82
2022/04/27 14:30:22;;;;;;;;;;;15.70;71.40;;;;;;4952781;28;19985;-83
2022/04/27 14:33:11;;;;;;;;;;;15.70;73.80;;;;;;4950694;29;19923;-85
2022/04/27 14:36:01;;;;;;;;;;;15.60;74.60;;;;;;4960575;28;20004;-83
2022/04/27 14:38:48;;;;;;;;;;;15.60;75.50;;;;;;4952177;28;20037;-84
2022/04/27 14:41:39;;;;;;;;;;;15.60;74.20;;;;;;4939462;29;19933;-83
2022/04/27 14:44:26;;;;;;;;;;;15.60;75.70;;;;;;4942000;28;19922;-84
2022/04/27 14:47:19;;;;;;;;;;;15.30;74.30;;;;;;4954197;28;20352;-84
2022/04/27 14:50:08;;;;;;;;;;;15.10;76.70;;;;;;4960539;28;19926;-82
2022/04/27 14:52:56;;;;;;;;;;;14.90;76.90;;;;;;4959983;28;19941;-82
2022/04/27 14:55:44;;;;;;;;;;;14.70;78.90;;;;;;4940702;29;19974;-84
2022/04/27 14:58:32;;;;;;;;;;;14.70;80.80;;;;;;4945653;29;19969;-83
2022/04/27 15:01:22;;;;;;;;;;;15.90;78.60;;;;;;4952182;29;19929;-83
2022/04/27 15:04:10;;;;;;;;;;;17.80;74.60;;;;;;4954882;28;20294;-83
2022/04/27 15:06:57;;;;;;;;;;;19.50;63.80;;;;;;4941962;28;19981;-83
2022/04/27 15:09:49;;;;;;;;;;;20.10;60.70;;;;;;4954063;29;19966;-84
2022/04/27 15:12:41;;;;;;;;;;;19.80;58.00;;;;;;4954680;28;19933;-82
2022/04/27 15:15:32;;;;;;;;;;;18.30;62.40;;;;;;4930108;28;19970;-82
2022/04/27 15:18:23;;;;;;;;;;;17.00;66.80;;;;;;4969749;28;19930;-82
2022/04/27 15:24:18;;;;;;;;;;;16.30;74.50;;;;;;4954475;28;19922;-83
2022/04/27 15:27:08;;;;;;;;;;;17.10;70.30;;;;;;4933133;29;19926;-83
2022/04/27 15:29:56;;;;;;;;;;;16.90;71.00;;;;;;4955979;28;20057;-84
2022/04/27 15:32:43;;;;;;;;;;;16.30;73.00;;;;;;4947957;28;19930;-83
2022/04/27 15:35:32;;;;;;;;;;;15.60;76.30;;;;;;4960493;29;20120;-83
2022/04/27 15:38:19;;;;;;;;;;;15.80;74.90;;;;;;4966057;29;20325;-85
2022/04/27 15:41:07;;;;;;;;;;;16.40;71.40;;;;;;4965920;29;19985;-84
2022/04/27 15:43:54;;;;;;;;;;;16.40;70.30;;;;;;4969322;29;19956;-81
2022/04/27 15:46:42;;;;;;;;;;;16.40;70.20;;;;;;4974457;29;19973;-83
2022/04/27 15:49:30;;;;;;;;;;;16.70;69.00;;;;;;4964032;28;20316;-85
2022/04/27 15:52:20;;;;;;;;;;;16.60;67.10;;;;;;4966906;28;20313;-83
2022/04/27 15:55:10;;;;;;;;;;;16.60;69.80;;;;;;4961583;28;19922;-84
2022/04/27 15:58:01;;;;;;;;;;;16.50;68.40;;;;;;4957931;29;19926;-83
2022/04/27 16:00:51;;;;;;;;;;;16.20;69.20;;;;;;4945568;29;19942;-83
2022/04/27 16:03:39;;;;;;;;;;;16.10;71.90;;;;;;4951073;29;20007;-85
2022/04/27 16:06:27;;;;;;;;;;;16.00;72.30;;;;;;4955286;29;19922;-84
2022/04/27 16:09:14;;;;;;;;;;;15.90;72.40;;;;;;4945338;29;19922;-82
2022/04/27 16:12:03;;;;;;;;;;;16.00;74.60;;;;;;4951140;29;19922;-81
2022/04/27 16:14:50;;;;;;;;;;;15.80;73.40;;;;;;4950866;28;19932;-84
2022/04/27 16:17:38;;;;;;;;;;;15.60;73.70;;;;;;4951284;29;19922;-85
2022/04/27 16:20:28;;;;;;;;;;;15.40;74.20;;;;;;4956919;29;19998;-84
2022/04/27 16:23:15;;;;;;;;;;;15.30;74.20;;;;;;4933372;29;19922;-84
2022/04/27 16:26:07;;;;;;;;;;;15.30;73.50;;;;;;4957037;29;20288;-83
2022/04/27 16:28:55;;;;;;;;;;;15.20;74.40;;;;;;4970054;28;20021;-82
2022/04/27 16:31:46;;;;;;;;;;;15.10;75.20;;;;;;4957501;28;19922;-82
2022/04/27 16:34:36;;;;;;;;;;;15.00;75.70;;;;;;4942269;29;19954;-83
2022/04/27 16:37:26;;;;;;;;;;;14.90;75.40;;;;;;4944320;29;19977;-83
2022/04/27 16:40:14;;;;;;;;;;;14.70;76.10;;;;;;4964333;28;20017;-83
2022/04/27 16:43:12;;;;;;;;;;;14.40;76.80;;;;;;4944729;28;19930;-84
2022/04/27 16:46:00;;;;;;;;;;;14.10;79.40;;;;;;4951473;29;20005;-83
2022/04/27 16:48:54;;;;;;;;;;;14.00;81.50;;;;;;4942435;29;19922;-83
2022/04/27 16:51:44;;;;;;;;;;;13.80;82.40;;;;;;4945129;29;19934;-84
2022/04/27 16:54:32;;;;;;;;;;;13.70;80.80;;;;;;4939872;28;20047;-83
2022/04/27 16:57:23;;;;;;;;;;;13.60;81.80;;;;;;4949311;29;20256;-85
2022/04/27 17:03:20;;;;;;;;;;;13.30;84.50;;;;;;4945366;29;19923;-84
2022/04/27 17:06:15;;;;;;;;;;;13.20;84.90;;;;;;4957104;28;19957;-85
2022/04/27 17:09:05;;;;;;;;;;;13.10;86.30;;;;;;4947770;28;20029;-85
2022/04/27 17:11:56;;;;;;;;;;;13.00;88.00;;;;;;4950292;29;19943;-83
2022/04/27 17:14:43;;;;;;;;;;;13.00;88.40;;;;;;4950894;29;19934;-82
2022/04/27 17:17:31;;;;;;;;;;;12.90;88.20;;;;;;4948282;28;19922;-83
2022/04/27 17:20:18;;;;;;;;;;;12.80;90.70;;;;;;4948827;28;20041;-86
2022/04/27 17:23:06;;;;;;;;;;;12.70;90.30;;;;;;4956429;28;19969;-84
2022/04/27 17:29:02;;;;;;;;;;;12.60;91.00;;;;;;4954200;29;19985;-83
2022/04/27 17:31:52;;;;;;;;;;;12.60;92.20;;;;;;4929710;29;19982;-84
2022/04/27 17:34:41;;;;;;;;;;;12.60;91.40;;;;;;4951697;28;20338;-83
2022/04/27 17:37:29;;;;;;;;;;;12.50;91.80;;;;;;4946217;28;19922;-84
2022/04/27 17:40:17;;;;;;;;;;;12.50;92.10;;;;;;4952036;28;19923;-84
2022/04/27 17:43:05;;;;;;;;;;;12.40;92.60;;;;;;4950751;28;20344;-84